Time;durP1;ratioP1;P1;durP2;ratioP2;P2;SDS_P1;SDS_P2;PMS_P1;PMS_P2;Temp;Humidity;BMP_temperature;BMP_pressure;BME280_temperature;BME280_humidity;BME280_pressure;Samples;Min_cycle;Max_cycle;Signal;HPM_P1;HPM_P2
2022/10/15 00:01:05;;;;;;;;;;;9.30;99.90;;;;;;5093121;28;19915;-74
2022/10/15 00:03:31;;;;;;;;;;;9.30;99.90;;;;;;5095845;28;19934;-74
2022/10/15 00:05:57;;;;;;;;;;;9.30;99.90;;;;;;5094886;28;20340;-74
2022/10/15 00:08:22;;;;;;;;;;;9.30;99.90;;;;;;5096032;28;20272;-74
2022/10/15 00:10:48;;;;;;;;;;;9.30;99.90;;;;;;5095970;28;19931;-74
2022/10/15 00:13:13;;;;;;;;;;;9.20;99.90;;;;;;5095615;28;20042;-74
2022/10/15 00:15:39;;;;;;;;;;;9.20;99.90;;;;;;5095962;28;19912;-74
2022/10/15 00:18:05;;;;;;;;;;;9.20;99.90;;;;;;5095824;28;20377;-74
2022/10/15 00:20:30;;;;;;;;;;;9.20;99.90;;;;;;5093948;28;19908;-74
2022/10/15 00:22:56;;;;;;;;;;;9.20;99.90;;;;;;5095843;28;19914;-74
2022/10/15 00:25:21;;;;;;;;;;;9.10;99.90;;;;;;5094182;28;19996;-74
2022/10/15 00:27:47;;;;;;;;;;;9.10;99.90;;;;;;5095936;28;19909;-74
2022/10/15 00:30:13;;;;;;;;;;;9.10;99.90;;;;;;5095913;28;20002;-73
2022/10/15 00:32:38;;;;;;;;;;;9.10;99.90;;;;;;5095393;28;19957;-75
2022/10/15 00:35:04;;;;;;;;;;;9.10;99.90;;;;;;5095683;28;19912;-74
2022/10/15 00:37:29;;;;;;;;;;;9.10;99.90;;;;;;5095116;28;20407;-73
2022/10/15 00:39:55;;;;;;;;;;;9.10;99.90;;;;;;5095485;28;19908;-74
2022/10/15 00:42:20;;;;;;;;;;;9.20;99.90;;;;;;5095329;28;19911;-74
2022/10/15 00:44:48;;;;;;;;;;;9.30;99.90;;;;;;5094235;28;20465;-73
2022/10/15 00:47:16;;;;;;;;;;;9.40;99.90;;;;;;5095350;28;19912;-74
2022/10/15 00:49:44;;;;;;;;;;;9.50;99.90;;;;;;5095603;28;19953;-74
2022/10/15 00:52:15;;;;;;;;;;;9.60;99.90;;;;;;5095188;28;19916;-74
2022/10/15 00:54:46;;;;;;;;;;;9.70;99.90;;;;;;5095276;28;19908;-74
2022/10/15 00:57:12;;;;;;;;;;;9.80;99.90;;;;;;5094185;28;19912;-75
2022/10/15 00:59:41;;;;;;;;;;;9.90;99.90;;;;;;5094972;28;20372;-75
2022/10/15 01:02:06;;;;;;;;;;;9.90;99.90;;;;;;5095142;28;19908;-75
2022/10/15 01:04:33;;;;;;;;;;;10.10;99.90;;;;;;5094367;28;19916;-75
2022/10/15 01:06:58;;;;;;;;;;;10.10;99.90;;;;;;5093993;28;20014;-75
2022/10/15 01:09:25;;;;;;;;;;;10.30;99.90;;;;;;5094361;28;20393;-75
2022/10/15 01:11:51;;;;;;;;;;;10.30;99.90;;;;;;5094817;28;19908;-74
2022/10/15 01:14:35;;;;;;;;;;;10.40;99.90;;;;;;5094245;28;19908;-75
2022/10/15 01:17:06;;;;;;;;;;;10.40;99.90;;;;;;5094724;28;20343;-74
2022/10/15 01:19:41;;;;;;;;;;;10.50;99.90;;;;;;5094386;28;19908;-75
2022/10/15 01:22:32;;;;;;;;;;;10.60;99.90;;;;;;5094794;28;19961;-74
2022/10/15 01:25:16;;;;;;;;;;;10.70;99.90;;;;;;5078100;28;19908;-74
2022/10/15 01:27:48;;;;;;;;;;;10.70;99.90;;;;;;5094301;28;19915;-74
2022/10/15 01:30:20;;;;;;;;;;;10.70;99.90;;;;;;5094974;28;19908;-74
2022/10/15 01:32:49;;;;;;;;;;;10.80;99.90;;;;;;5094253;28;19914;-74
2022/10/15 01:35:50;;;;;;;;;;;10.70;99.90;;;;;;5094477;28;19966;-74
2022/10/15 01:38:24;;;;;;;;;;;10.70;99.90;;;;;;4993751;28;19920;-74
2022/10/15 01:40:55;;;;;;;;;;;10.70;99.90;;;;;;5064883;28;19915;-73
2022/10/15 01:43:42;;;;;;;;;;;10.70;99.90;;;;;;5073750;28;19908;-73
2022/10/15 01:46:11;;;;;;;;;;;10.70;99.90;;;;;;5073687;28;20366;-73
2022/10/15 01:48:37;;;;;;;;;;;10.80;99.90;;;;;;5073107;28;19915;-73
2022/10/15 01:51:04;;;;;;;;;;;10.80;99.90;;;;;;5106392;28;19913;-73
2022/10/15 01:53:33;;;;;;;;;;;10.80;99.90;;;;;;5072903;28;19991;-74
2022/10/15 01:56:01;;;;;;;;;;;10.90;99.90;;;;;;5073742;28;19912;-73
2022/10/15 01:58:28;;;;;;;;;;;10.90;99.90;;;;;;5073307;28;20444;-75
2022/10/15 02:00:55;;;;;;;;;;;10.90;99.90;;;;;;5073596;28;19909;-74
2022/10/15 02:03:21;;;;;;;;;;;10.90;99.90;;;;;;5073416;28;20384;-75
2022/10/15 02:05:53;;;;;;;;;;;11.00;99.90;;;;;;5074037;28;19909;-75
2022/10/15 02:08:25;;;;;;;;;;;11.00;99.90;;;;;;5074260;28;19913;-76
2022/10/15 02:10:54;;;;;;;;;;;11.00;99.90;;;;;;5074235;28;19970;-75
2022/10/15 02:13:27;;;;;;;;;;;11.00;99.90;;;;;;5073281;28;19909;-75
2022/10/15 02:15:52;;;;;;;;;;;11.10;99.90;;;;;;5076225;28;20378;-75
2022/10/15 02:18:24;;;;;;;;;;;11.10;99.90;;;;;;5076949;28;19913;-75
2022/10/15 02:21:00;;;;;;;;;;;11.10;99.90;;;;;;5073708;28;19915;-73
2022/10/15 02:23:30;;;;;;;;;;;11.10;99.90;;;;;;5105217;28;19908;-74
2022/10/15 02:25:57;;;;;;;;;;;11.10;99.90;;;;;;5071879;28;19908;-74
2022/10/15 02:28:24;;;;;;;;;;;11.20;99.90;;;;;;5072730;28;19955;-74
2022/10/15 02:30:51;;;;;;;;;;;11.20;99.90;;;;;;5073517;28;19909;-75
2022/10/15 02:33:17;;;;;;;;;;;11.30;99.90;;;;;;5073612;28;20277;-74
2022/10/15 02:35:43;;;;;;;;;;;11.20;99.90;;;;;;5104892;28;20352;-75
2022/10/15 02:38:10;;;;;;;;;;;11.30;99.90;;;;;;5073115;28;20295;-78
2022/10/15 02:40:36;;;;;;;;;;;11.10;99.90;;;;;;5072631;28;19908;-79
2022/10/15 02:43:07;;;;;;;;;;;11.10;99.90;;;;;;5073115;28;20444;-78
2022/10/15 02:45:33;;;;;;;;;;;11.00;99.90;;;;;;5070400;28;20011;-78
2022/10/15 02:47:59;;;;;;;;;;;10.90;99.90;;;;;;5072825;28;19955;-79
2022/10/15 02:50:24;;;;;;;;;;;10.90;99.90;;;;;;5072708;28;20357;-79
2022/10/15 02:52:50;;;;;;;;;;;10.90;99.90;;;;;;5072931;28;19985;-80
2022/10/15 02:55:16;;;;;;;;;;;10.80;99.90;;;;;;5072823;28;19918;-84
2022/10/15 02:57:41;;;;;;;;;;;10.70;99.90;;;;;;5070930;28;20487;-83
2022/10/15 03:00:07;;;;;;;;;;;10.50;99.90;;;;;;5072659;28;19922;-82
2022/10/15 03:02:33;;;;;;;;;;;10.30;99.90;;;;;;5071374;28;20396;-82
2022/10/15 03:04:58;;;;;;;;;;;10.20;99.90;;;;;;5072029;28;19916;-84
2022/10/15 03:07:24;;;;;;;;;;;9.90;99.90;;;;;;5071192;28;20000;-82
2022/10/15 03:09:49;;;;;;;;;;;9.70;99.90;;;;;;5072279;28;20479;-81
2022/10/15 03:12:15;;;;;;;;;;;9.50;99.90;;;;;;5072756;28;19915;-82
2022/10/15 03:14:41;;;;;;;;;;;9.50;99.90;;;;;;5071926;28;19934;-82
2022/10/15 03:17:06;;;;;;;;;;;9.30;99.90;;;;;;5073047;28;19913;-81
2022/10/15 03:19:32;;;;;;;;;;;9.20;99.90;;;;;;5071894;28;19909;-82
2022/10/15 03:21:57;;;;;;;;;;;9.10;99.90;;;;;;5072441;28;19962;-81
2022/10/15 03:24:23;;;;;;;;;;;9.00;99.90;;;;;;5072308;28;19930;-82
2022/10/15 03:26:48;;;;;;;;;;;8.90;99.90;;;;;;5103819;28;19915;-79
2022/10/15 03:29:14;;;;;;;;;;;8.90;99.90;;;;;;5072617;28;19948;-76
2022/10/15 03:31:40;;;;;;;;;;;8.80;99.90;;;;;;5071988;28;19915;-75
2022/10/15 03:34:05;;;;;;;;;;;8.70;99.90;;;;;;5072319;28;19931;-75
2022/10/15 03:36:31;;;;;;;;;;;8.70;99.90;;;;;;5073138;28;19912;-75
2022/10/15 03:38:56;;;;;;;;;;;8.60;99.90;;;;;;5076350;28;19916;-75
2022/10/15 03:41:22;;;;;;;;;;;8.50;99.90;;;;;;5076486;28;20021;-74
2022/10/15 03:43:47;;;;;;;;;;;8.60;99.90;;;;;;5075909;28;20016;-74
2022/10/15 03:46:14;;;;;;;;;;;8.60;99.90;;;;;;5075816;28;19924;-74
2022/10/15 03:48:40;;;;;;;;;;;8.50;99.90;;;;;;5075341;28;20475;-74
2022/10/15 03:51:05;;;;;;;;;;;8.60;99.90;;;;;;5075946;28;19991;-74
2022/10/15 03:53:31;;;;;;;;;;;8.50;99.90;;;;;;5075696;28;19909;-74
2022/10/15 03:56:01;;;;;;;;;;;8.50;99.90;;;;;;5075611;28;20369;-74
2022/10/15 03:58:27;;;;;;;;;;;8.50;99.90;;;;;;5075852;28;20290;-74
2022/10/15 04:00:52;;;;;;;;;;;8.40;99.90;;;;;;5075540;28;19933;-74
2022/10/15 04:03:18;;;;;;;;;;;8.30;99.90;;;;;;5076408;28;20211;-74
2022/10/15 04:05:48;;;;;;;;;;;8.20;99.90;;;;;;5075220;28;19909;-74
2022/10/15 04:08:14;;;;;;;;;;;8.20;99.90;;;;;;5075938;28;19956;-74
2022/10/15 04:10:39;;;;;;;;;;;8.20;99.90;;;;;;5075171;28;19962;-74
2022/10/15 04:13:05;;;;;;;;;;;8.10;99.90;;;;;;5108565;28;19912;-74
2022/10/15 04:15:30;;;;;;;;;;;8.00;99.90;;;;;;5107555;28;19912;-75
2022/10/15 04:17:56;;;;;;;;;;;7.90;99.90;;;;;;5076265;28;19944;-74
2022/10/15 04:20:22;;;;;;;;;;;7.80;99.90;;;;;;5075858;28;19915;-74
2022/10/15 04:22:47;;;;;;;;;;;7.80;99.90;;;;;;5075136;28;19916;-73
2022/10/15 04:25:13;;;;;;;;;;;7.90;99.90;;;;;;5075621;28;19974;-73
2022/10/15 04:27:38;;;;;;;;;;;7.80;99.90;;;;;;5074983;28;20257;-74
2022/10/15 04:30:04;;;;;;;;;;;7.80;99.90;;;;;;5075471;28;19908;-74
2022/10/15 04:32:30;;;;;;;;;;;7.80;99.90;;;;;;5074886;28;19916;-74
2022/10/15 04:34:55;;;;;;;;;;;7.80;99.90;;;;;;5075000;28;19908;-73
2022/10/15 04:37:21;;;;;;;;;;;7.80;99.90;;;;;;5074346;28;19944;-73
2022/10/15 04:39:47;;;;;;;;;;;7.70;99.90;;;;;;5074981;28;20409;-74
2022/10/15 04:42:12;;;;;;;;;;;7.80;99.90;;;;;;5075402;28;19919;-72
2022/10/15 04:44:38;;;;;;;;;;;7.90;99.90;;;;;;5074562;28;19954;-74
2022/10/15 04:47:03;;;;;;;;;;;7.80;99.90;;;;;;5075142;28;19995;-73
2022/10/15 04:49:30;;;;;;;;;;;7.80;99.90;;;;;;5072339;28;21350;-73
2022/10/15 04:51:55;;;;;;;;;;;7.90;99.90;;;;;;5075095;28;19958;-73
2022/10/15 04:54:21;;;;;;;;;;;7.90;99.90;;;;;;5075127;28;19908;-74
2022/10/15 04:56:46;;;;;;;;;;;7.90;99.90;;;;;;5074341;28;19916;-74
2022/10/15 04:59:12;;;;;;;;;;;7.90;99.90;;;;;;5074967;28;19912;-74
2022/10/15 05:01:38;;;;;;;;;;;7.90;99.90;;;;;;5074369;28;19908;-74
2022/10/15 05:04:03;;;;;;;;;;;7.80;99.90;;;;;;5075027;28;19909;-74
2022/10/15 05:06:31;;;;;;;;;;;7.90;99.90;;;;;;5075012;28;19908;-74
2022/10/15 05:08:56;;;;;;;;;;;7.80;99.90;;;;;;5074832;28;19916;-74
2022/10/15 05:11:23;;;;;;;;;;;7.90;99.90;;;;;;5074642;28;19908;-73
2022/10/15 05:13:49;;;;;;;;;;;8.00;99.90;;;;;;5074244;28;19995;-74
2022/10/15 05:16:16;;;;;;;;;;;7.90;99.90;;;;;;5074636;28;20023;-74
2022/10/15 05:18:42;;;;;;;;;;;7.80;99.90;;;;;;5073991;28;19908;-74
2022/10/15 05:21:09;;;;;;;;;;;7.90;99.90;;;;;;5074338;28;19909;-74
2022/10/15 05:23:35;;;;;;;;;;;7.90;99.90;;;;;;5074511;28;19909;-74
2022/10/15 05:26:02;;;;;;;;;;;7.90;99.90;;;;;;5074236;28;20003;-74
2022/10/15 05:28:28;;;;;;;;;;;7.90;99.90;;;;;;5074076;28;20430;-73
2022/10/15 05:30:54;;;;;;;;;;;7.90;99.90;;;;;;5073637;28;19904;-73
2022/10/15 05:33:20;;;;;;;;;;;7.90;99.90;;;;;;5073187;28;20277;-73
2022/10/15 05:35:45;;;;;;;;;;;7.80;99.90;;;;;;5073786;28;20015;-74
2022/10/15 05:38:11;;;;;;;;;;;7.90;99.90;;;;;;5072915;28;19912;-74
2022/10/15 05:40:36;;;;;;;;;;;7.80;99.90;;;;;;5112769;27;19908;-73
2022/10/15 05:43:02;;;;;;;;;;;7.80;99.90;;;;;;5094283;28;19959;-73
2022/10/15 05:45:28;;;;;;;;;;;7.90;99.90;;;;;;5094363;28;20422;-73
2022/10/15 05:47:54;;;;;;;;;;;7.90;99.90;;;;;;5092400;28;20110;-73
2022/10/15 05:50:21;;;;;;;;;;;7.90;99.90;;;;;;5093951;28;20340;-74
2022/10/15 05:52:46;;;;;;;;;;;7.90;99.90;;;;;;5093668;28;19915;-73
2022/10/15 05:55:12;;;;;;;;;;;8.00;99.90;;;;;;5093762;28;19916;-73
2022/10/15 05:57:37;;;;;;;;;;;7.90;99.90;;;;;;5093307;28;19908;-73
2022/10/15 06:00:04;;;;;;;;;;;7.90;99.90;;;;;;5093477;28;19969;-74
2022/10/15 06:02:30;;;;;;;;;;;7.90;99.90;;;;;;5093970;28;20250;-74
2022/10/15 06:04:55;;;;;;;;;;;7.90;99.90;;;;;;5093448;28;19930;-74
2022/10/15 06:07:21;;;;;;;;;;;8.00;99.90;;;;;;5093839;28;19908;-73
2022/10/15 06:09:46;;;;;;;;;;;7.90;99.90;;;;;;5092972;28;19953;-73
2022/10/15 06:12:12;;;;;;;;;;;8.00;99.90;;;;;;5093613;28;20297;-74
2022/10/15 06:14:37;;;;;;;;;;;7.90;99.90;;;;;;5093473;28;19911;-73
2022/10/15 06:17:03;;;;;;;;;;;7.90;99.90;;;;;;5092258;28;19975;-74
2022/10/15 06:19:28;;;;;;;;;;;8.00;99.90;;;;;;5092603;28;19915;-73
2022/10/15 06:21:54;;;;;;;;;;;8.00;99.90;;;;;;5092906;28;19908;-73
2022/10/15 06:24:19;;;;;;;;;;;7.90;99.90;;;;;;5093704;28;20311;-73
2022/10/15 06:26:45;;;;;;;;;;;8.00;99.90;;;;;;5092429;28;19914;-73
2022/10/15 06:29:11;;;;;;;;;;;8.10;99.90;;;;;;5093769;28;19912;-73
2022/10/15 06:31:36;;;;;;;;;;;8.00;99.90;;;;;;5093452;28;20375;-74
2022/10/15 06:34:02;;;;;;;;;;;8.00;99.90;;;;;;5092810;28;19912;-73
2022/10/15 06:36:27;;;;;;;;;;;8.10;99.90;;;;;;5093011;28;20504;-73
2022/10/15 06:38:53;;;;;;;;;;;8.10;99.90;;;;;;5092579;28;19912;-74
2022/10/15 06:41:19;;;;;;;;;;;8.10;99.90;;;;;;5092886;28;19909;-73
2022/10/15 06:43:47;;;;;;;;;;;8.20;99.90;;;;;;5092585;28;20261;-74
2022/10/15 06:46:12;;;;;;;;;;;8.20;99.90;;;;;;5092924;28;19943;-73
2022/10/15 06:48:38;;;;;;;;;;;8.10;99.90;;;;;;5093134;28;19912;-73
2022/10/15 06:51:04;;;;;;;;;;;8.20;99.90;;;;;;5092621;28;19915;-73
2022/10/15 06:53:29;;;;;;;;;;;8.20;99.90;;;;;;5091995;28;20358;-72
2022/10/15 06:55:59;;;;;;;;;;;8.10;99.90;;;;;;5092578;28;20119;-73
2022/10/15 06:58:24;;;;;;;;;;;8.20;99.90;;;;;;5092816;28;20276;-73
2022/10/15 07:00:50;;;;;;;;;;;8.20;99.90;;;;;;5092481;28;19908;-73
2022/10/15 07:03:16;;;;;;;;;;;8.10;99.90;;;;;;5093106;28;20387;-72
2022/10/15 07:05:41;;;;;;;;;;;8.20;99.90;;;;;;5092383;28;19915;-74
2022/10/15 07:08:07;;;;;;;;;;;8.10;99.90;;;;;;5093119;28;19918;-73
2022/10/15 07:10:32;;;;;;;;;;;8.20;99.90;;;;;;5092462;28;19912;-74
2022/10/15 07:12:59;;;;;;;;;;;8.30;99.90;;;;;;5091492;28;19912;-74
2022/10/15 07:15:25;;;;;;;;;;;8.30;99.90;;;;;;5092508;28;19962;-74
2022/10/15 07:17:55;;;;;;;;;;;8.40;99.90;;;;;;5092112;28;19908;-74
2022/10/15 07:20:21;;;;;;;;;;;8.50;99.90;;;;;;5093222;28;19950;-73
2022/10/15 07:22:47;;;;;;;;;;;8.60;99.90;;;;;;5092045;28;19962;-73
2022/10/15 07:25:13;;;;;;;;;;;8.60;99.90;;;;;;5092985;28;19912;-73
2022/10/15 07:27:39;;;;;;;;;;;8.60;99.90;;;;;;5092246;28;19908;-74
2022/10/15 07:30:04;;;;;;;;;;;8.70;99.90;;;;;;5091330;28;19916;-73
2022/10/15 07:32:30;;;;;;;;;;;8.70;99.90;;;;;;5091797;28;19908;-73
2022/10/15 07:34:56;;;;;;;;;;;8.80;99.90;;;;;;5091506;28;19908;-73
2022/10/15 07:37:21;;;;;;;;;;;8.80;99.90;;;;;;5090958;28;19909;-73
2022/10/15 07:39:47;;;;;;;;;;;8.90;99.90;;;;;;5091452;28;19954;-73
2022/10/15 07:42:12;;;;;;;;;;;8.90;99.90;;;;;;5092318;28;19965;-72
2022/10/15 07:44:38;;;;;;;;;;;9.00;99.90;;;;;;5092076;28;19941;-72
2022/10/15 07:47:03;;;;;;;;;;;9.10;99.90;;;;;;5092219;28;20432;-73
2022/10/15 07:49:29;;;;;;;;;;;9.10;99.90;;;;;;5092293;28;20305;-73
2022/10/15 07:51:54;;;;;;;;;;;9.20;99.90;;;;;;5090714;28;19914;-73
2022/10/15 07:54:20;;;;;;;;;;;9.20;99.90;;;;;;5092664;28;19908;-73
2022/10/15 07:56:46;;;;;;;;;;;9.30;99.90;;;;;;5091875;28;19959;-74
2022/10/15 07:59:11;;;;;;;;;;;9.30;99.90;;;;;;5091859;28;19931;-73
2022/10/15 08:01:37;;;;;;;;;;;9.40;99.90;;;;;;5092321;28;20254;-72
2022/10/15 08:04:02;;;;;;;;;;;9.50;99.90;;;;;;5091754;28;20095;-72
2022/10/15 08:06:29;;;;;;;;;;;9.50;99.90;;;;;;5092917;28;19951;-73
2022/10/15 08:08:55;;;;;;;;;;;9.60;99.90;;;;;;5090343;28;19935;-73
2022/10/15 08:11:21;;;;;;;;;;;9.70;99.90;;;;;;5091682;28;20376;-72
2022/10/15 08:13:47;;;;;;;;;;;9.70;99.90;;;;;;5091854;28;19968;-73
2022/10/15 08:16:14;;;;;;;;;;;9.80;99.90;;;;;;5092358;28;19965;-74
2022/10/15 08:18:40;;;;;;;;;;;10.00;99.90;;;;;;5092449;28;19908;-73
2022/10/15 08:21:06;;;;;;;;;;;10.10;99.90;;;;;;5091860;28;19993;-73
2022/10/15 08:23:32;;;;;;;;;;;10.10;99.90;;;;;;5093309;28;20349;-74
2022/10/15 08:25:58;;;;;;;;;;;10.20;99.90;;;;;;5095081;28;19951;-73
2022/10/15 08:28:23;;;;;;;;;;;10.30;99.90;;;;;;5095764;28;19912;-73
2022/10/15 08:30:49;;;;;;;;;;;10.50;99.90;;;;;;5095023;28;19908;-74
2022/10/15 08:33:14;;;;;;;;;;;10.60;99.90;;;;;;5094937;28;20339;-73
2022/10/15 08:35:43;;;;;;;;;;;10.70;99.90;;;;;;5095770;28;19916;-74
2022/10/15 08:38:12;;;;;;;;;;;10.80;99.90;;;;;;5093724;28;19908;-73
2022/10/15 08:40:37;;;;;;;;;;;10.90;99.90;;;;;;5095238;28;20307;-74
2022/10/15 08:43:04;;;;;;;;;;;10.90;99.90;;;;;;5094308;28;20002;-74
2022/10/15 08:45:31;;;;;;;;;;;11.00;99.90;;;;;;5094641;28;19965;-74
2022/10/15 08:47:59;;;;;;;;;;;11.00;99.90;;;;;;5092617;28;19908;-73
2022/10/15 08:50:25;;;;;;;;;;;11.00;99.90;;;;;;5093595;28;20072;-74
2022/10/15 08:52:50;;;;;;;;;;;11.10;99.90;;;;;;5094156;28;20405;-73
2022/10/15 08:55:20;;;;;;;;;;;11.10;99.90;;;;;;5094804;28;20384;-73
2022/10/15 08:57:48;;;;;;;;;;;11.30;99.90;;;;;;5094561;28;19915;-74
2022/10/15 09:00:17;;;;;;;;;;;11.40;99.90;;;;;;5094862;28;19912;-74
2022/10/15 09:02:55;;;;;;;;;;;11.50;99.90;;;;;;5094324;28;20375;-75
2022/10/15 09:05:25;;;;;;;;;;;11.50;99.90;;;;;;5094671;28;19908;-75
2022/10/15 09:07:58;;;;;;;;;;;11.50;99.90;;;;;;5093944;28;20432;-75
2022/10/15 09:10:26;;;;;;;;;;;11.50;99.90;;;;;;5094481;28;19995;-74
2022/10/15 09:13:04;;;;;;;;;;;11.50;99.90;;;;;;5093969;28;20375;-74
2022/10/15 09:15:33;;;;;;;;;;;11.50;99.90;;;;;;5094492;28;19916;-75
2022/10/15 09:17:58;;;;;;;;;;;11.60;99.90;;;;;;5093485;28;19961;-74
2022/10/15 09:20:29;;;;;;;;;;;11.60;99.90;;;;;;5094234;28;19916;-74
2022/10/15 09:22:54;;;;;;;;;;;11.60;99.90;;;;;;5094140;28;19908;-73
2022/10/15 09:25:21;;;;;;;;;;;11.60;99.90;;;;;;5094322;28;20300;-74
2022/10/15 09:27:47;;;;;;;;;;;11.50;99.90;;;;;;5094008;28;19912;-74
2022/10/15 09:30:16;;;;;;;;;;;11.50;99.90;;;;;;5093188;28;19957;-74
2022/10/15 09:32:44;;;;;;;;;;;11.40;99.90;;;;;;5093753;28;19908;-75
2022/10/15 09:35:19;;;;;;;;;;;11.30;99.90;;;;;;5093138;28;19915;-81
2022/10/15 09:37:51;;;;;;;;;;;11.20;99.90;;;;;;5093895;28;19912;-80
2022/10/15 09:40:27;;;;;;;;;;;11.00;99.90;;;;;;5093874;28;19962;-78
2022/10/15 09:42:54;;;;;;;;;;;10.90;99.90;;;;;;5093362;28;19908;-74
2022/10/15 09:45:22;;;;;;;;;;;10.90;99.90;;;;;;5093074;28;19920;-76
2022/10/15 09:47:48;;;;;;;;;;;10.90;99.90;;;;;;5092841;28;19915;-73
2022/10/15 09:50:14;;;;;;;;;;;11.00;99.90;;;;;;5093517;28;19912;-74
2022/10/15 09:52:40;;;;;;;;;;;11.20;99.90;;;;;;5091534;28;19952;-75
2022/10/15 09:55:05;;;;;;;;;;;11.20;99.90;;;;;;5091686;28;20384;-74
2022/10/15 09:57:32;;;;;;;;;;;11.30;99.90;;;;;;5093468;28;20377;-74
2022/10/15 10:00:01;;;;;;;;;;;11.30;99.90;;;;;;5092488;28;19916;-73
2022/10/15 10:02:27;;;;;;;;;;;11.30;99.90;;;;;;5094416;28;19915;-73
2022/10/15 10:04:53;;;;;;;;;;;11.20;99.90;;;;;;5093071;28;20292;-73
2022/10/15 10:07:30;;;;;;;;;;;11.30;99.90;;;;;;5094192;28;19908;-74
2022/10/15 10:09:56;;;;;;;;;;;11.30;99.90;;;;;;5093331;28;19908;-75
2022/10/15 10:12:33;;;;;;;;;;;11.40;99.90;;;;;;5093491;28;19908;-74
2022/10/15 10:15:01;;;;;;;;;;;11.40;99.90;;;;;;5093244;28;20385;-74
2022/10/15 10:17:27;;;;;;;;;;;11.40;99.90;;;;;;5093583;28;19908;-74
2022/10/15 10:20:08;;;;;;;;;;;11.40;99.90;;;;;;5092357;28;19935;-74
2022/10/15 10:22:43;;;;;;;;;;;11.40;99.90;;;;;;5093284;28;19915;-74
2022/10/15 10:25:26;;;;;;;;;;;11.40;99.90;;;;;;5092936;28;19973;-74
2022/10/15 10:27:52;;;;;;;;;;;11.50;99.90;;;;;;5093176;28;19931;-73
2022/10/15 10:30:18;;;;;;;;;;;11.40;99.90;;;;;;5091406;28;19915;-74
2022/10/15 10:32:44;;;;;;;;;;;11.50;99.90;;;;;;5092937;28;19912;-73
2022/10/15 10:35:21;;;;;;;;;;;11.40;99.90;;;;;;5091404;28;19962;-73
2022/10/15 10:37:47;;;;;;;;;;;11.50;99.90;;;;;;5093317;28;19908;-74
2022/10/15 10:40:33;;;;;;;;;;;11.50;99.90;;;;;;5091876;28;19978;-73
2022/10/15 10:43:09;;;;;;;;;;;11.50;99.90;;;;;;5092962;28;19999;-75
2022/10/15 10:45:35;;;;;;;;;;;11.60;99.90;;;;;;5092677;28;20409;-73
2022/10/15 10:48:20;;;;;;;;;;;11.60;99.90;;;;;;5092478;28;19991;-73
2022/10/15 10:50:46;;;;;;;;;;;11.70;99.90;;;;;;5092797;28;19916;-74
2022/10/15 10:53:22;;;;;;;;;;;11.80;99.90;;;;;;5092261;28;19904;-73
2022/10/15 10:55:48;;;;;;;;;;;11.90;99.90;;;;;;5092989;28;19916;-73
2022/10/15 10:58:17;;;;;;;;;;;12.00;99.90;;;;;;5092571;28;20404;-74
2022/10/15 11:00:46;;;;;;;;;;;12.10;99.90;;;;;;5092721;28;19956;-73
2022/10/15 11:03:30;;;;;;;;;;;12.20;99.90;;;;;;5092600;28;19974;-73
2022/10/15 11:06:15;;;;;;;;;;;12.30;99.90;;;;;;5092411;28;20470;-74
2022/10/15 11:08:50;;;;;;;;;;;12.30;99.90;;;;;;5071210;28;19922;-75
2022/10/15 11:11:18;;;;;;;;;;;12.40;99.90;;;;;;5092609;28;19909;-75
2022/10/15 11:13:48;;;;;;;;;;;12.40;99.90;;;;;;5092093;28;19908;-73
2022/10/15 11:16:22;;;;;;;;;;;12.40;99.90;;;;;;5092268;28;19923;-74
2022/10/15 11:18:57;;;;;;;;;;;12.40;99.90;;;;;;5093047;28;20341;-74
2022/10/15 11:21:41;;;;;;;;;;;12.40;99.90;;;;;;5092852;28;20011;-72
2022/10/15 11:24:22;;;;;;;;;;;12.40;99.90;;;;;;5092533;28;19909;-73
2022/10/15 11:27:06;;;;;;;;;;;12.50;99.90;;;;;;5092826;28;19915;-73
2022/10/15 11:29:39;;;;;;;;;;;12.50;99.90;;;;;;5090505;28;19908;-73
2022/10/15 11:32:10;;;;;;;;;;;12.50;99.90;;;;;;5092073;28;19916;-73
2022/10/15 11:34:38;;;;;;;;;;;12.60;99.90;;;;;;5092488;28;19951;-72
2022/10/15 11:37:07;;;;;;;;;;;12.60;99.90;;;;;;5091366;28;19920;-73
2022/10/15 11:39:47;;;;;;;;;;;12.60;99.90;;;;;;5092198;28;20365;-74
2022/10/15 11:42:33;;;;;;;;;;;12.60;99.90;;;;;;5090013;28;19916;-74
2022/10/15 11:44:59;;;;;;;;;;;12.60;99.90;;;;;;5091880;28;20400;-73
2022/10/15 11:47:30;;;;;;;;;;;12.70;99.90;;;;;;5092609;28;20017;-73
2022/10/15 11:50:11;;;;;;;;;;;12.70;99.90;;;;;;5092415;28;19943;-74
2022/10/15 11:52:42;;;;;;;;;;;12.80;99.90;;;;;;5092964;28;20003;-74
2022/10/15 11:55:14;;;;;;;;;;;12.90;99.90;;;;;;5091570;28;19962;-74
2022/10/15 11:57:40;;;;;;;;;;;13.00;99.90;;;;;;5093803;28;20383;-74
2022/10/15 12:00:09;;;;;;;;;;;13.10;99.90;;;;;;5096008;28;19958;-74
2022/10/15 12:02:36;;;;;;;;;;;13.10;99.90;;;;;;5096073;28;19938;-73
2022/10/15 12:05:11;;;;;;;;;;;13.10;99.90;;;;;;5094949;28;19931;-74
2022/10/15 12:07:39;;;;;;;;;;;13.20;99.90;;;;;;5095924;28;20318;-73
2022/10/15 12:10:15;;;;;;;;;;;13.30;99.90;;;;;;5095604;28;19912;-74
2022/10/15 12:12:52;;;;;;;;;;;13.20;99.90;;;;;;5096549;28;19908;-75
2022/10/15 12:15:53;;;;;;;;;;;13.10;99.90;;;;;;5094311;28;19904;-75
2022/10/15 12:18:26;;;;;;;;;;;13.10;99.90;;;;;;5052890;28;19909;-75
2022/10/15 12:20:54;;;;;;;;;;;13.10;99.90;;;;;;5089424;28;19908;-75
2022/10/15 12:23:25;;;;;;;;;;;13.00;99.90;;;;;;5095113;28;20003;-73
2022/10/15 12:25:51;;;;;;;;;;;13.00;99.90;;;;;;5094663;28;19915;-73
2022/10/15 12:28:19;;;;;;;;;;;13.10;99.90;;;;;;5094766;28;20256;-73
2022/10/15 12:30:53;;;;;;;;;;;13.10;99.90;;;;;;5096054;28;19919;-74
2022/10/15 12:33:39;;;;;;;;;;;13.00;99.90;;;;;;5095029;28;19905;-73
2022/10/15 12:36:08;;;;;;;;;;;12.70;99.90;;;;;;5094211;28;19927;-75
2022/10/15 12:38:35;;;;;;;;;;;12.40;99.90;;;;;;5095287;28;19919;-74
2022/10/15 12:41:08;;;;;;;;;;;12.20;99.90;;;;;;5095159;28;19912;-81
2022/10/15 12:43:35;;;;;;;;;;;11.90;99.90;;;;;;5094058;28;19916;-83
2022/10/15 12:46:02;;;;;;;;;;;11.70;99.90;;;;;;5094050;28;20385;-84
2022/10/15 12:48:29;;;;;;;;;;;11.30;99.90;;;;;;5094571;28;20369;-81
2022/10/15 12:51:13;;;;;;;;;;;11.10;99.90;;;;;;5094673;28;19912;-85
2022/10/15 12:53:41;;;;;;;;;;;10.80;99.90;;;;;;5092335;28;19962;-82
2022/10/15 12:56:09;;;;;;;;;;;10.60;99.90;;;;;;5093309;28;20036;-82
2022/10/15 12:58:38;;;;;;;;;;;10.50;99.90;;;;;;5095409;28;19919;-80
2022/10/15 13:01:24;;;;;;;;;;;10.40;99.90;;;;;;5093910;28;19908;-78
2022/10/15 13:03:50;;;;;;;;;;;10.40;99.90;;;;;;5086157;28;20380;-76
2022/10/15 13:06:23;;;;;;;;;;;10.50;99.90;;;;;;5094613;28;19908;-76
2022/10/15 13:08:58;;;;;;;;;;;10.60;99.90;;;;;;5093531;28;19913;-74
2022/10/15 13:11:27;;;;;;;;;;;10.80;99.90;;;;;;5094262;28;19911;-74
2022/10/15 13:13:57;;;;;;;;;;;11.00;99.90;;;;;;5094245;28;20329;-74
2022/10/15 13:16:23;;;;;;;;;;;11.10;99.90;;;;;;5094148;28;19924;-74
2022/10/15 13:18:50;;;;;;;;;;;11.20;99.90;;;;;;5094939;28;19908;-74
2022/10/15 13:21:15;;;;;;;;;;;11.30;99.90;;;;;;5093984;28;19908;-74
2022/10/15 13:23:45;;;;;;;;;;;11.30;99.90;;;;;;5094792;28;19915;-73
2022/10/15 13:26:18;;;;;;;;;;;11.30;99.90;;;;;;5094124;28;19909;-75
2022/10/15 13:28:45;;;;;;;;;;;11.20;99.90;;;;;;5094116;28;19915;-73
2022/10/15 13:31:16;;;;;;;;;;;11.20;99.90;;;;;;5094107;28;19908;-74
2022/10/15 13:33:43;;;;;;;;;;;11.20;99.90;;;;;;5093018;28;19977;-73
2022/10/15 13:36:15;;;;;;;;;;;11.20;99.90;;;;;;5093911;28;19916;-75
2022/10/15 13:38:41;;;;;;;;;;;11.20;99.90;;;;;;5093407;28;20349;-74
2022/10/15 13:41:07;;;;;;;;;;;11.20;99.90;;;;;;5093666;28;19915;-75
2022/10/15 13:43:32;;;;;;;;;;;11.20;99.90;;;;;;5094769;28;20349;-74
2022/10/15 13:45:59;;;;;;;;;;;11.20;99.90;;;;;;5094080;28;19920;-74
2022/10/15 13:48:26;;;;;;;;;;;11.30;99.90;;;;;;5093686;28;19908;-73
2022/10/15 13:50:53;;;;;;;;;;;11.40;99.90;;;;;;5094322;28;19965;-74
2022/10/15 13:53:30;;;;;;;;;;;11.60;99.90;;;;;;5093547;28;20398;-73
2022/10/15 13:55:57;;;;;;;;;;;11.70;99.90;;;;;;5093035;28;20084;-74
2022/10/15 13:58:24;;;;;;;;;;;11.80;99.90;;;;;;5093735;28;19908;-72
2022/10/15 14:00:52;;;;;;;;;;;11.80;99.90;;;;;;5094084;28;19908;-74
2022/10/15 14:03:22;;;;;;;;;;;11.80;99.90;;;;;;5090897;28;20311;-74
2022/10/15 14:05:49;;;;;;;;;;;11.90;99.90;;;;;;5091967;28;20430;-74
2022/10/15 14:08:19;;;;;;;;;;;11.90;99.90;;;;;;5093777;28;19908;-74
2022/10/15 14:10:45;;;;;;;;;;;11.90;99.90;;;;;;5091904;28;20331;-72
2022/10/15 14:13:11;;;;;;;;;;;12.10;99.90;;;;;;5093389;28;19998;-73
2022/10/15 14:15:49;;;;;;;;;;;12.10;99.90;;;;;;5093112;28;20018;-73
2022/10/15 14:18:17;;;;;;;;;;;12.20;99.90;;;;;;5092386;28;19954;-72
2022/10/15 14:20:45;;;;;;;;;;;12.30;99.90;;;;;;5092993;28;19912;-72
2022/10/15 14:23:16;;;;;;;;;;;12.40;99.90;;;;;;5092372;28;20373;-72
2022/10/15 14:25:41;;;;;;;;;;;12.40;99.90;;;;;;5090621;28;19912;-74
2022/10/15 14:28:17;;;;;;;;;;;12.50;99.90;;;;;;5092225;28;20381;-74
2022/10/15 14:30:43;;;;;;;;;;;12.40;99.90;;;;;;5090189;28;19908;-72